General Acha, Argentina
Current Conditions -  °F | °C
As of 8:00 AM on Friday 24 Oct 2014 (Local Time) from SAZN Reporting Station
Scattered Clouds Scattered Clouds  
Wind Chill: 12°   Ceiling: Unl
Heat Index: 12°   Visibility: 6mi
Dew Point:   Wind: 5mph
Humidity: 67%   Direction: 110°ESE
Pressure: 30.15"   Gusts: NA
Location:  37.38°S, 64.6°W
Report Text: SAZN 241100Z 11004KT 9999 SCT035 SCT20012/06 Q1021
Loading
Personal Weather Stations






























Interactive Weather Map
Tropical Storm Tracking
New forecast layout! Learn more

10-Day Weather Forecast

Advertisements
Track Severe Weather on mobile